Bluffton, South Carolina
Current Conditions -  °F | °C
As of 7:50 PM on Saturday 25 Oct 2014 (Local Time) from KHXD Reporting Station
Clear Clear  
Wind Chill: 59°   Ceiling: Unl
Heat Index: 59°   Visibility: 10mi
Dew Point: 54°   Wind: 0mph
Humidity: 82%   Direction: NA
Pressure: 29.99"   Gusts: NA
Location:  32.24°N, 80.86°W
Report Text: KHXD 252350Z 00000KT 10SM SKC 15/12 A2999
Loading
Personal Weather Stations






























Interactive Weather Map
Tropical Storm Tracking
New forecast layout! Learn more

10-Day Weather Forecast

Advertisements
Track Severe Weather on mobile